Osg Courageous — WDF7122 — position and weather

sailwx.info

Track history (hours):
 
Tides and Currents Weather Stations Pressure Air Temp Water Temp Dewpoint Dewpoint Depression Visibility Wind Speed Wind Dir Waves Ship Positions

Osg Courageous

Owner: OSG Ship Management, Inc, Tampa, FL. More information available from US FCC via Universal Licensing System and Coast Guard Vessel Documentation Center.

Last reported at 2015-Aug-31 08:09 UTC. Time now 2015-Sep-03 23:31 UTC.
Position N 25°25' W 080°03'.

Length 187 m; draft 7 m.

Type: Tanker. MMSI: 367481310.

Date/timePositionNaut miles runAvg speedWind from/ knotsBaromVisibWave heightAir tempDewpointWater temp
2015-Aug-31 08:09N 25°25' W 080°03'5 9.2
2015-Aug-31 07:33N 25°30' W 080°03'10 9.7
2015-Aug-31 06:34N 25°40' W 080°03'10 9.9
2015-Aug-31 05:33N 25°50' W 080°03'1010.4
2015-Aug-31 04:33N 26°00' W 080°04'6 6.2
2015-Aug-31 03:33N 26°06' W 080°07'0 0.0
2015-Aug-31 02:33N 26°06' W 080°07'0 0.0
2015-Aug-31 01:25N 26°06' W 080°07'0 0.0
2015-Aug-31 00:28N 26°06' W 080°07'0 0.0
2015-Aug-30 23:28N 26°06' W 080°07'0 0.0
2015-Aug-30 22:28N 26°06' W 080°07'0 0.0
2015-Aug-30 21:31N 26°06' W 080°07'0 0.0
2015-Aug-30 20:31N 26°06' W 080°07'0 0.0
2015-Aug-30 19:31N 26°06' W 080°07'0 0.0
2015-Aug-30 18:31N 26°06' W 080°07'0 0.0
2015-Aug-30 17:31N 26°06' W 080°07'0 0.0
2015-Aug-30 16:31N 26°06' W 080°07'0 0.0
2015-Aug-30 15:31N 26°06' W 080°07'0 0.0
2015-Aug-30 14:31N 26°06' W 080°07'0 0.0
2015-Aug-30 13:25N 26°06' W 080°07'0 0.0
2015-Aug-30 12:19N 26°06' W 080°07'0 0.0
2015-Aug-30 11:25N 26°06' W 080°07'0 0.0
2015-Aug-30 10:34N 26°06' W 080°07'0 0.0
2015-Aug-30 09:28N 26°06' W 080°07'0 0.0
2015-Aug-30 08:25N 26°06' W 080°07'0 0.0
2015-Aug-30 07:31N 26°06' W 080°07'0 0.0
2015-Aug-30 06:25N 26°06' W 080°07'0 0.0
2015-Aug-30 05:12N 26°06' W 080°07'0 0.0
2015-Aug-30 04:31N 26°06' W 080°07'0 0.0
2015-Aug-30 03:31N 26°06' W 080°07'0 0.0
2015-Aug-30 02:31N 26°06' W 080°07'0 0.0
2015-Aug-30 01:34N 26°06' W 080°07'0 0.0
2015-Aug-30 00:34N 26°06' W 080°07'0 0.0
2015-Aug-29 23:34N 26°06' W 080°07'0 0.0
2015-Aug-29 22:21N 26°06' W 080°07'0 0.0
2015-Aug-29 21:33N 26°06' W 080°07'0 0.0
2015-Aug-29 20:33N 26°06' W 080°07'0 0.0
2015-Aug-29 19:33N 26°06' W 080°07'0 0.0
2015-Aug-29 18:28N 26°06' W 080°07'2 2.3
2015-Aug-29 17:33N 26°06' W 080°05'1111.1
2015-Aug-29 16:33N 25°55' W 080°02'1211.9
2015-Aug-29 15:33N 25°43' W 080°00'1312.6
2015-Aug-29 14:33N 25°30' W 079°60'  
2015-Aug-24 15:21N 29°55' W 090°05'7 0.3
2015-Aug-23 12:28N 29°50' W 089°60'  
Track history (hours):
 
Tides and Currents Weather Stations Pressure Air Temp Water Temp Dewpoint Dewpoint Depression Visibility Wind Speed Wind Dir Waves Ship Positions

Osg Courageous

Owner: OSG Ship Management, Inc, Tampa, FL. More information available from US FCC via Universal Licensing System and Coast Guard Vessel Documentation Center.

Last reported at 2015-Aug-31 08:09 UTC. Time now 2015-Sep-03 23:31 UTC.
Position N 25°25' W 080°03'.

Length 187 m; draft 7 m.

Type: Tanker. MMSI: 367481310.

Date/timePositionNaut miles runAvg speedWind from/ knotsBaromVisibWave heightAir tempDewpointWater temp
2015-Aug-31 08:09N 25°25' W 080°03'5 9.2
2015-Aug-31 07:33N 25°30' W 080°03'10 9.7
2015-Aug-31 06:34N 25°40' W 080°03'10 9.9
2015-Aug-31 05:33N 25°50' W 080°03'1010.4
2015-Aug-31 04:33N 26°00' W 080°04'6 6.2
2015-Aug-31 03:33N 26°06' W 080°07'0 0.0
2015-Aug-31 02:33N 26°06' W 080°07'0 0.0
2015-Aug-31 01:25N 26°06' W 080°07'0 0.0
2015-Aug-31 00:28N 26°06' W 080°07'0 0.0
2015-Aug-30 23:28N 26°06' W 080°07'0 0.0
2015-Aug-30 22:28N 26°06' W 080°07'0 0.0
2015-Aug-30 21:31N 26°06' W 080°07'0 0.0
2015-Aug-30 20:31N 26°06' W 080°07'0 0.0
2015-Aug-30 19:31N 26°06' W 080°07'0 0.0
2015-Aug-30 18:31N 26°06' W 080°07'0 0.0
2015-Aug-30 17:31N 26°06' W 080°07'0 0.0
2015-Aug-30 16:31N 26°06' W 080°07'0 0.0
2015-Aug-30 15:31N 26°06' W 080°07'0 0.0
2015-Aug-30 14:31N 26°06' W 080°07'0 0.0
2015-Aug-30 13:25N 26°06' W 080°07'0 0.0
2015-Aug-30 12:19N 26°06' W 080°07'0 0.0
2015-Aug-30 11:25N 26°06' W 080°07'0 0.0
2015-Aug-30 10:34N 26°06' W 080°07'0 0.0
2015-Aug-30 09:28N 26°06' W 080°07'0 0.0
2015-Aug-30 08:25N 26°06' W 080°07'0 0.0
2015-Aug-30 07:31N 26°06' W 080°07'0 0.0
2015-Aug-30 06:25N 26°06' W 080°07'0 0.0
2015-Aug-30 05:12N 26°06' W 080°07'0 0.0
2015-Aug-30 04:31N 26°06' W 080°07'0 0.0
2015-Aug-30 03:31N 26°06' W 080°07'0 0.0
2015-Aug-30 02:31N 26°06' W 080°07'0 0.0
2015-Aug-30 01:34N 26°06' W 080°07'0 0.0
2015-Aug-30 00:34N 26°06' W 080°07'0 0.0
2015-Aug-29 23:34N 26°06' W 080°07'0 0.0
2015-Aug-29 22:21N 26°06' W 080°07'0 0.0
2015-Aug-29 21:33N 26°06' W 080°07'0 0.0
2015-Aug-29 20:33N 26°06' W 080°07'0 0.0
2015-Aug-29 19:33N 26°06' W 080°07'0 0.0
2015-Aug-29 18:28N 26°06' W 080°07'2 2.3
2015-Aug-29 17:33N 26°06' W 080°05'1111.1
2015-Aug-29 16:33N 25°55' W 080°02'1211.9
2015-Aug-29 15:33N 25°43' W 080°00'1312.6
2015-Aug-29 14:33N 25°30' W 079°60'  
2015-Aug-24 15:21N 29°55' W 090°05'7 0.3
2015-Aug-23 12:28N 29°50' W 089°60'  

Dump ship's entire track history